Time;durP1;ratioP1;P1;durP2;ratioP2;P2;SDS_P1;SDS_P2;PMS_P1;PMS_P2;Temp;Humidity;BMP_temperature;BMP_pressure;BME280_temperature;BME280_humidity;BME280_pressure;Samples;Min_cycle;Max_cycle;Signal;HPM_P1;HPM_P2
2023/11/02 00:00:36;;;;;;;2.30;2.20;;;12.80;99.90;;;;;;5015780;28;20452;-68
2023/11/02 00:03:07;;;;;;;2.63;2.53;;;12.80;99.90;;;;;;5012868;28;20491;-68
2023/11/02 00:05:54;;;;;;;2.50;2.40;;;12.60;99.90;;;;;;5014227;28;20435;-68
2023/11/02 00:08:23;;;;;;;2.60;2.40;;;12.70;99.90;;;;;;5014635;28;20482;-68
2023/11/02 00:10:49;;;;;;;5.03;2.50;;;12.70;99.90;;;;;;5015356;28;20460;-67
2023/11/02 00:13:24;;;;;;;4.80;2.80;;;12.80;99.90;;;;;;5014001;28;20440;-69
2023/11/02 00:15:50;;;;;;;2.70;2.60;;;12.80;99.90;;;;;;5013191;28;20255;-68
2023/11/02 00:18:16;;;;;;;3.13;2.93;;;12.90;99.90;;;;;;5015310;28;20519;-68
2023/11/02 00:20:42;;;;;;;2.80;2.70;;;13.10;99.90;;;;;;5013713;28;20870;-68
2023/11/02 00:23:08;;;;;;;2.57;2.47;;;12.90;99.90;;;;;;5014859;28;20433;-68
2023/11/02 00:25:52;;;;;;;3.07;2.97;;;12.90;99.90;;;;;;5012853;28;20265;-62
2023/11/02 00:28:17;;;;;;;5.30;2.70;;;13.00;99.90;;;;;;5011263;28;20444;-68
2023/11/02 00:30:48;;;;;;;2.77;2.67;;;13.00;99.90;;;;;;5013017;28;20829;-68
2023/11/02 00:33:15;;;;;;;3.10;2.93;;;12.90;99.90;;;;;;5013647;28;20406;-67
2023/11/02 00:35:59;;;;;;;2.60;2.50;;;13.00;99.90;;;;;;5007031;28;20470;-68
2023/11/02 00:38:26;;;;;;;2.70;2.50;;;13.00;99.90;;;;;;5013660;28;20482;-68
2023/11/02 00:40:53;;;;;;;2.80;2.53;;;13.00;99.90;;;;;;5012985;28;20429;-68
2023/11/02 00:43:21;;;;;;;3.70;2.67;;;13.00;99.90;;;;;;5014280;28;20943;-68
2023/11/02 00:45:46;;;;;;;3.10;2.80;;;13.00;99.90;;;;;;5012478;28;20896;-69
2023/11/02 00:48:22;;;;;;;2.50;2.40;;;12.70;99.90;;;;;;5013185;28;20434;-68
2023/11/02 00:51:06;;;;;;;2.70;2.50;;;12.80;99.90;;;;;;5012505;28;20210;-68
2023/11/02 00:53:33;;;;;;;2.77;2.47;;;12.70;99.90;;;;;;5012286;28;20484;-68
2023/11/02 00:56:02;;;;;;;2.67;2.57;;;12.80;99.90;;;;;;5011105;28;20448;-68
2023/11/02 00:58:28;;;;;;;3.27;2.53;;;12.70;99.90;;;;;;5014087;28;20420;-68
2023/11/02 01:00:54;;;;;;;3.17;2.70;;;12.90;99.90;;;;;;5012822;28;20433;-68
2023/11/02 01:03:24;;;;;;;2.40;2.30;;;12.80;99.90;;;;;;5012321;28;20431;-68
2023/11/02 01:05:50;;;;;;;2.80;2.60;;;12.70;99.90;;;;;;5012291;28;20207;-68
2023/11/02 01:08:16;;;;;;;3.07;2.70;;;12.80;99.90;;;;;;5014062;28;20436;-68
2023/11/02 01:10:43;;;;;;;2.33;2.23;;;12.70;99.90;;;;;;5012901;28;20517;-68
2023/11/02 01:13:17;;;;;;;2.53;2.43;;;12.80;99.90;;;;;;5011525;28;20481;-68
2023/11/02 01:15:43;;;;;;;2.40;2.30;;;12.70;99.90;;;;;;5013509;28;20866;-68
2023/11/02 01:18:14;;;;;;;2.20;2.10;;;12.60;99.90;;;;;;5013939;28;20424;-68
2023/11/02 01:20:39;;;;;;;2.70;2.60;;;12.60;99.90;;;;;;5013708;28;20175;-62
2023/11/02 01:23:09;;;;;;;2.30;2.20;;;12.60;99.90;;;;;;5011956;28;20446;-69
2023/11/02 01:25:44;;;;;;;2.57;2.40;;;12.70;99.90;;;;;;5013884;28;20178;-68
2023/11/02 01:28:18;;;;;;;4.03;2.67;;;12.80;99.90;;;;;;5012689;28;20505;-68
2023/11/02 01:30:59;;;;;;;2.63;2.53;;;12.80;99.90;;;;;;5012172;28;20431;-68
2023/11/02 01:33:33;;;;;;;2.73;2.63;;;12.90;99.90;;;;;;5013357;28;20420;-68
2023/11/02 01:36:00;;;;;;;2.80;2.60;;;12.80;99.90;;;;;;5011988;28;20433;-68
2023/11/02 01:38:27;;;;;;;4.07;2.70;;;12.80;99.90;;;;;;5012502;28;20834;-68
2023/11/02 01:41:05;;;;;;;2.87;2.67;;;12.80;99.90;;;;;;5012064;28;20782;-68
2023/11/02 01:43:39;;;;;;;2.90;2.77;;;12.90;99.90;;;;;;5012575;28;20489;-68
2023/11/02 01:46:12;;;;;;;2.87;2.67;;;12.90;99.90;;;;;;5012395;28;20433;-68
2023/11/02 01:48:51;;;;;;;2.57;2.47;;;12.90;99.90;;;;;;5012210;28;20422;-68
2023/11/02 01:51:24;;;;;;;3.20;2.87;;;12.90;99.90;;;;;;5012195;28;20999;-68
2023/11/02 01:53:57;;;;;;;3.17;2.97;;;12.80;99.90;;;;;;5011361;28;20445;-68
2023/11/02 01:56:35;;;;;;;2.53;2.47;;;12.80;99.90;;;;;;5011862;28;20428;-68
2023/11/02 01:59:24;;;;;;;2.70;2.50;;;12.80;99.90;;;;;;5011007;28;20784;-68
2023/11/02 02:01:57;;;;;;;3.13;2.93;;;12.80;99.90;;;;;;5010359;28;20413;-68
2023/11/02 02:04:46;;;;;;;3.00;2.80;;;12.70;99.90;;;;;;5012714;28;20432;-68
2023/11/02 02:07:41;;;;;;;2.90;2.70;;;12.70;99.90;;;;;;5010739;28;20464;-68
2023/11/02 02:10:19;;;;;;;3.33;3.03;;;12.60;99.90;;;;;;5012030;28;20471;-68
2023/11/02 02:13:10;;;;;;;3.00;2.80;;;12.60;99.90;;;;;;5010108;28;20825;-67
2023/11/02 02:16:09;;;;;;;2.77;2.60;;;12.60;99.90;;;;;;5008591;28;20435;-68
2023/11/02 02:19:21;;;;;;;2.67;2.57;;;12.50;99.90;;;;;;4993694;28;20463;-68
2023/11/02 02:22:02;;;;;;;3.33;3.03;;;12.60;99.90;;;;;;4984946;28;20438;-68
2023/11/02 02:24:47;;;;;;;3.07;2.87;;;12.60;99.90;;;;;;5012110;28;20436;-69
2023/11/02 02:27:28;;;;;;;2.67;2.57;;;12.60;99.90;;;;;;5010583;28;20448;-68
2023/11/02 02:30:23;;;;;;;3.37;3.20;;;12.60;99.90;;;;;;5012122;28;20533;-70
2023/11/02 02:33:16;;;;;;;3.73;3.43;;;12.50;99.90;;;;;;4996661;28;20773;-68
2023/11/02 02:36:06;;;;;;;3.40;3.20;;;12.50;99.90;;;;;;5009367;28;20436;-62
2023/11/02 02:38:43;;;;;;;3.80;3.30;;;12.60;99.90;;;;;;5011543;28;20428;-68
2023/11/02 02:41:14;;;;;;;3.50;3.20;;;12.70;99.90;;;;;;5011512;28;20463;-68
2023/11/02 02:43:41;;;;;;;3.40;3.10;;;12.80;99.90;;;;;;5012654;28;20475;-68
2023/11/02 02:46:10;;;;;;;3.27;3.13;;;12.90;99.90;;;;;;5011036;28;20429;-69
2023/11/02 02:48:37;;;;;;;3.20;3.00;;;12.90;99.90;;;;;;5010744;28;20441;-68
2023/11/02 02:51:04;;;;;;;3.30;3.20;;;12.90;99.90;;;;;;5011694;28;20466;-69
2023/11/02 02:53:33;;;;;;;3.60;3.40;;;13.00;99.90;;;;;;5009839;28;20464;-68
2023/11/02 02:56:05;;;;;;;3.40;3.20;;;13.00;99.90;;;;;;5009729;28;20924;-68
2023/11/02 02:58:44;;;;;;;3.67;3.47;;;13.10;99.90;;;;;;5010899;28;20936;-69
2023/11/02 03:01:14;;;;;;;3.23;3.03;;;12.80;99.90;;;;;;5002135;28;20422;-68
2023/11/02 03:03:44;;;;;;;3.50;3.20;;;12.80;99.90;;;;;;5009941;28;20798;-68
2023/11/02 03:06:10;;;;;;;3.60;3.33;;;12.90;99.90;;;;;;4993736;28;20438;-68
2023/11/02 03:08:40;;;;;;;3.00;2.70;;;12.80;99.90;;;;;;5011557;28;20434;-68
2023/11/02 03:11:09;;;;;;;3.17;2.60;;;12.80;99.90;;;;;;5010092;28;20462;-68
2023/11/02 03:13:38;;;;;;;3.93;3.20;;;12.80;99.90;;;;;;5010493;28;20429;-68
2023/11/02 03:16:08;;;;;;;2.90;2.80;;;12.90;99.90;;;;;;5009882;28;20487;-68
2023/11/02 03:18:38;;;;;;;2.60;2.50;;;12.70;99.90;;;;;;5012295;28;20496;-68
2023/11/02 03:21:04;;;;;;;3.10;3.00;;;12.70;99.90;;;;;;5009205;28;20428;-68
2023/11/02 03:23:33;;;;;;;2.90;2.60;;;12.80;99.90;;;;;;5011431;28;20437;-69
2023/11/02 03:26:24;;;;;;;5.33;2.70;;;12.80;99.90;;;;;;5010418;28;20419;-68
2023/11/02 03:29:05;;;;;;;2.60;2.50;;;12.70;99.90;;;;;;5011698;28;20782;-65
2023/11/02 03:31:35;;;;;;;3.33;2.70;;;12.70;99.90;;;;;;5000960;28;20428;-68
2023/11/02 03:34:03;;;;;;;2.83;2.63;;;12.80;99.90;;;;;;5008905;28;20982;-68
2023/11/02 03:37:00;;;;;;;3.50;2.97;;;12.70;99.90;;;;;;5011488;28;20441;-68
2023/11/02 03:39:40;;;;;;;2.53;2.43;;;12.70;99.90;;;;;;4990933;28;20448;-68
2023/11/02 03:42:30;;;;;;;2.93;2.73;;;12.70;99.90;;;;;;5010865;28;20446;-68
2023/11/02 03:45:07;;;;;;;3.00;2.73;;;12.60;99.90;;;;;;5010877;28;20449;-68
2023/11/02 03:47:53;;;;;;;2.63;2.43;;;12.70;99.90;;;;;;5010792;28;20467;-69
2023/11/02 03:50:38;;;;;;;4.93;2.80;;;12.60;99.90;;;;;;5011199;28;20771;-68
2023/11/02 03:53:41;;;;;;;4.23;2.53;;;12.70;99.90;;;;;;5010939;28;20466;-68
2023/11/02 03:56:13;;;;;;;3.67;2.80;;;12.60;99.90;;;;;;4997070;28;20493;-68
2023/11/02 03:58:48;;;;;;;3.40;3.20;;;12.70;99.90;;;;;;5011666;28;20416;-68
2023/11/02 04:01:42;;;;;;;2.73;2.60;;;12.70;99.90;;;;;;5010360;28;20520;-69
2023/11/02 04:04:12;;;;;;;3.33;2.90;;;12.70;99.90;;;;;;5001473;28;20425;-68
2023/11/02 04:06:51;;;;;;;3.60;3.30;;;12.70;99.90;;;;;;5001972;28;20454;-69
2023/11/02 04:09:21;;;;;;;4.10;3.70;;;12.70;99.90;;;;;;5007367;28;20418;-69
2023/11/02 04:11:59;;;;;;;2.97;2.77;;;12.70;99.90;;;;;;5010479;28;20426;-65
2023/11/02 04:14:26;;;;;;;3.00;2.80;;;12.60;99.90;;;;;;5009243;28;20522;-71
2023/11/02 04:16:53;;;;;;;3.00;2.80;;;12.60;99.90;;;;;;5011110;28;21018;-72
2023/11/02 04:19:19;;;;;;;2.80;2.60;;;12.50;99.90;;;;;;5011204;28;20422;-72
2023/11/02 04:21:44;;;;;;;3.73;2.33;;;12.50;99.90;;;;;;5014125;28;20431;-72
2023/11/02 04:24:10;;;;;;;2.60;2.40;;;12.60;99.90;;;;;;5015214;28;20939;-72
2023/11/02 04:26:37;;;;;;;2.77;2.53;;;12.60;99.90;;;;;;5013464;28;20457;-72
2023/11/02 04:29:03;;;;;;;2.70;2.60;;;12.70;99.90;;;;;;5011990;28;20298;-72
2023/11/02 04:31:30;;;;;;;2.40;2.30;;;12.60;99.90;;;;;;5014667;28;20944;-72
2023/11/02 04:33:56;;;;;;;5.07;2.30;;;12.60;99.90;;;;;;5013296;28;20426;-72
2023/11/02 04:36:22;;;;;;;2.40;2.20;;;12.70;99.90;;;;;;5014437;28;20443;-72
2023/11/02 04:38:52;;;;;;;2.43;2.33;;;12.80;99.90;;;;;;5013846;28;20196;-61
2023/11/02 04:41:19;;;;;;;4.07;2.80;;;12.70;99.90;;;;;;5015456;28;20169;-72
2023/11/02 04:43:45;;;;;;;3.00;2.90;;;12.60;99.90;;;;;;5014471;28;20841;-72
2023/11/02 04:46:10;;;;;;;3.70;3.10;;;12.60;99.90;;;;;;5012144;28;20467;-74
2023/11/02 04:48:36;;;;;;;3.60;3.30;;;12.70;99.90;;;;;;5014933;28;20541;-68
2023/11/02 04:51:02;;;;;;;2.70;2.50;;;12.70;99.90;;;;;;5012353;28;20256;-67
2023/11/02 04:53:28;;;;;;;3.53;3.33;;;12.70;99.90;;;;;;5013833;28;20358;-65
2023/11/02 04:55:53;;;;;;;2.20;1.80;;;12.60;99.90;;;;;;5014084;28;20427;-65
2023/11/02 04:58:19;;;;;;;2.00;1.80;;;12.60;99.90;;;;;;5013631;28;20189;-65
2023/11/02 05:00:45;;;;;;;3.57;3.33;;;12.60;99.90;;;;;;5013821;28;20195;-67
2023/11/02 05:03:11;;;;;;;2.23;2.03;;;12.60;99.90;;;;;;5013845;28;20418;-66
2023/11/02 05:05:37;;;;;;;2.40;2.30;;;12.70;99.90;;;;;;5013244;28;20729;-66
2023/11/02 05:08:03;;;;;;;1.70;1.60;;;12.60;99.90;;;;;;5012380;28;20593;-66
2023/11/02 05:10:28;;;;;;;3.00;2.53;;;12.40;99.90;;;;;;5013496;28;20617;-67
2023/11/02 05:12:54;;;;;;;5.87;2.77;;;12.40;99.90;;;;;;5012720;28;20434;-66
2023/11/02 05:15:20;;;;;;;3.60;3.10;;;12.20;99.90;;;;;;5013174;28;20896;-68
2023/11/02 05:17:45;;;;;;;3.07;2.77;;;12.20;99.90;;;;;;5014066;28;20263;-67
2023/11/02 05:20:11;;;;;;;3.10;3.00;;;12.20;99.90;;;;;;5013066;28;20722;-67
2023/11/02 05:22:37;;;;;;;4.23;3.37;;;12.20;99.90;;;;;;5011457;28;20179;-66
2023/11/02 05:25:04;;;;;;;3.30;1.80;;;12.20;99.90;;;;;;5013713;28;20749;-67
2023/11/02 05:27:30;;;;;;;1.90;1.70;;;12.30;99.90;;;;;;5012665;28;20262;-67
2023/11/02 05:29:56;;;;;;;3.87;3.33;;;12.30;99.90;;;;;;5013057;28;20796;-64
2023/11/02 05:32:21;;;;;;;2.37;2.27;;;12.30;99.90;;;;;;5011080;28;20440;-77
2023/11/02 05:34:47;;;;;;;3.83;2.20;;;12.30;99.90;;;;;;5014596;28;20184;-77
2023/11/02 05:37:13;;;;;;;4.07;2.20;;;12.40;99.90;;;;;;5012570;28;20310;-69
2023/11/02 05:39:38;;;;;;;4.57;4.37;;;12.50;99.90;;;;;;5012736;28;20183;-64
2023/11/02 05:42:04;;;;;;;2.33;2.13;;;12.50;99.90;;;;;;5012753;28;20642;-66
2023/11/02 05:44:30;;;;;;;4.23;2.37;;;12.50;99.90;;;;;;5013369;28;20196;-67
2023/11/02 05:46:56;;;;;;;4.13;3.23;;;12.50;99.90;;;;;;5011848;28;20439;-72
2023/11/02 05:49:21;;;;;;;4.43;2.40;;;12.50;99.90;;;;;;5013012;28;20922;-70
2023/11/02 05:51:47;;;;;;;3.20;3.10;;;12.60;99.90;;;;;;5013479;28;20341;-73
2023/11/02 05:54:13;;;;;;;2.40;2.20;;;12.50;99.90;;;;;;5012012;28;20648;-73
2023/11/02 05:56:39;;;;;;;2.20;2.00;;;12.50;99.90;;;;;;5013628;28;20191;-74
2023/11/02 05:59:05;;;;;;;5.07;4.67;;;12.50;99.90;;;;;;5012499;28;20488;-73
2023/11/02 06:01:31;;;;;;;2.90;2.80;;;12.50;99.90;;;;;;5012449;28;20192;-73
2023/11/02 06:04:02;;;;;;;2.80;2.70;;;12.50;99.90;;;;;;5011137;28;20178;-72
2023/11/02 06:06:28;;;;;;;3.63;3.43;;;12.60;99.90;;;;;;5013724;28;20446;-72
2023/11/02 06:08:53;;;;;;;3.93;3.50;;;12.60;99.90;;;;;;5012249;28;20437;-69
2023/11/02 06:11:19;;;;;;;3.00;2.57;;;12.60;99.90;;;;;;5002333;28;20666;-73
2023/11/02 06:13:45;;;;;;;3.67;2.60;;;12.70;99.90;;;;;;5012518;28;20216;-73
2023/11/02 06:16:11;;;;;;;4.70;4.40;;;12.70;99.90;;;;;;5011600;28;20181;-72
2023/11/02 06:18:36;;;;;;;2.50;2.40;;;12.80;99.90;;;;;;5013352;28;20952;-72
2023/11/02 06:21:02;;;;;;;3.40;3.10;;;12.90;99.90;;;;;;5010392;28;20196;-73
2023/11/02 06:23:28;;;;;;;3.60;3.40;;;12.90;99.90;;;;;;5012166;28;20585;-72
2023/11/02 06:25:55;;;;;;;4.43;2.30;;;12.90;99.90;;;;;;5012539;28;20167;-62
2023/11/02 06:28:20;;;;;;;3.53;1.90;;;12.80;99.90;;;;;;5011748;28;20255;-72
2023/11/02 06:30:46;;;;;;;1.80;1.70;;;12.90;99.90;;;;;;5011799;28;20834;-72
2023/11/02 06:33:22;;;;;;;3.10;1.90;;;12.90;99.90;;;;;;5010528;28;20654;-72
2023/11/02 06:35:48;;;;;;;2.93;2.70;;;12.90;99.90;;;;;;5012631;28;20189;-73
2023/11/02 06:38:14;;;;;;;3.73;2.33;;;12.90;99.90;;;;;;5009798;28;20450;-72
2023/11/02 06:40:41;;;;;;;2.30;2.20;;;13.00;99.90;;;;;;5012836;28;20428;-73
2023/11/02 06:43:07;;;;;;;3.30;3.20;;;13.10;99.90;;;;;;5011116;28;20543;-73
2023/11/02 06:45:32;;;;;;;1.80;1.70;;;13.10;99.90;;;;;;5012013;28;20428;-72
2023/11/02 06:47:58;;;;;;;5.87;5.10;;;13.20;99.90;;;;;;5012088;28;20202;-72
2023/11/02 06:50:24;;;;;;;4.17;3.97;;;13.10;99.90;;;;;;5011464;28;20252;-72
2023/11/02 06:52:50;;;;;;;3.20;1.80;;;13.10;99.90;;;;;;5011709;28;20190;-71
2023/11/02 06:55:15;;;;;;;3.47;3.27;;;13.10;99.90;;;;;;5011103;28;20308;-71
2023/11/02 06:57:41;;;;;;;2.30;2.20;;;13.20;99.90;;;;;;5010241;28;20190;-75
2023/11/02 07:00:09;;;;;;;3.23;2.67;;;13.10;99.90;;;;;;5010797;28;20622;-75
2023/11/02 07:02:37;;;;;;;3.73;3.47;;;13.20;99.90;;;;;;5010448;28;20209;-71
2023/11/02 07:05:04;;;;;;;2.90;2.80;;;13.10;99.90;;;;;;5010313;28;20767;-72
2023/11/02 07:07:30;;;;;;;1.70;1.70;;;13.20;99.90;;;;;;5009967;28;20469;-64
2023/11/02 07:09:56;;;;;;;1.80;1.70;;;13.20;99.90;;;;;;5011115;28;20472;-72
2023/11/02 07:12:22;;;;;;;3.17;2.50;;;13.10;99.90;;;;;;5010599;28;20212;-72
2023/11/02 07:14:48;;;;;;;2.50;2.40;;;13.10;99.90;;;;;;5011858;28;20433;-70
2023/11/02 07:17:16;;;;;;;2.10;2.10;;;13.10;99.90;;;;;;5009104;28;20439;-70
2023/11/02 07:19:42;;;;;;;3.43;3.33;;;13.30;99.90;;;;;;5012743;28;20511;-70
2023/11/02 07:22:07;;;;;;;2.60;2.50;;;13.20;99.90;;;;;;5011272;28;20433;-70
2023/11/02 07:24:33;;;;;;;4.07;3.97;;;13.30;99.90;;;;;;5011811;28;20429;-71
2023/11/02 07:26:59;;;;;;;3.60;2.17;;;13.30;99.90;;;;;;5011058;28;20579;-69
2023/11/02 07:29:24;;;;;;;2.97;2.77;;;13.30;99.90;;;;;;5012222;28;20271;-69
2023/11/02 07:31:50;;;;;;;2.00;1.90;;;13.20;99.90;;;;;;5008162;28;20174;-69
2023/11/02 07:34:18;;;;;;;1.70;1.70;;;13.30;99.90;;;;;;5012026;28;20190;-70
2023/11/02 07:36:43;;;;;;;2.40;2.30;;;13.30;99.90;;;;;;5011286;28;20440;-71
2023/11/02 07:39:09;;;;;;;4.50;4.30;;;13.30;99.90;;;;;;5008727;28;20426;-70
2023/11/02 07:41:35;;;;;;;3.60;3.30;;;13.20;99.90;;;;;;5011670;28;20181;-70
2023/11/02 07:44:00;;;;;;;2.63;2.47;;;13.10;99.90;;;;;;5010731;28;20189;-63
2023/11/02 07:46:26;;;;;;;1.83;1.70;;;13.00;99.90;;;;;;5010287;28;20228;-69
2023/11/02 07:48:52;;;;;;;2.10;2.00;;;13.00;99.90;;;;;;5009691;28;20533;-70
2023/11/02 07:51:18;;;;;;;2.67;2.57;;;12.90;99.90;;;;;;5010990;28;20231;-70
2023/11/02 07:53:46;;;;;;;2.20;2.10;;;12.80;99.90;;;;;;5010915;28;20525;-70
2023/11/02 07:56:12;;;;;;;3.60;3.50;;;12.70;99.90;;;;;;5012779;28;20453;-70
2023/11/02 07:58:42;;;;;;;2.57;2.53;;;12.80;99.90;;;;;;5014569;28;20523;-69
2023/11/02 08:01:10;;;;;;;5.60;5.37;;;12.90;99.90;;;;;;5013221;28;20420;-69
2023/11/02 08:03:36;;;;;;;1.60;1.50;;;12.90;99.90;;;;;;5012857;28;20482;-69
2023/11/02 08:06:02;;;;;;;2.00;2.00;;;12.80;99.90;;;;;;5010566;28;20924;-74
2023/11/02 08:08:28;;;;;;;1.63;1.63;;;12.80;99.90;;;;;;5010294;28;20791;-73
2023/11/02 08:10:55;;;;;;;1.50;1.50;;;12.70;99.90;;;;;;5006416;28;20426;-68
2023/11/02 08:13:21;;;;;;;3.63;3.40;;;12.60;99.90;;;;;;5015193;28;20432;-63
2023/11/02 08:15:47;;;;;;;4.80;4.43;;;12.50;99.90;;;;;;5014332;28;20495;-63
2023/11/02 08:18:12;;;;;;;5.73;4.23;;;12.60;99.90;;;;;;5013898;28;20194;-63
2023/11/02 08:20:38;;;;;;;6.13;4.93;;;12.70;99.90;;;;;;5013761;28;20552;-64
2023/11/02 08:23:04;;;;;;;3.80;2.93;;;12.70;99.90;;;;;;5013016;28;20270;-63
2023/11/02 08:25:30;;;;;;;3.43;2.60;;;12.90;99.90;;;;;;5014721;28;20221;-63
2023/11/02 08:27:59;;;;;;;3.20;2.90;;;13.20;99.90;;;;;;5014639;28;20206;-63
2023/11/02 08:30:25;;;;;;;2.97;2.77;;;13.20;99.90;;;;;;5013649;28;20515;-63
2023/11/02 08:32:53;;;;;;;3.47;2.30;;;13.40;99.90;;;;;;5013807;28;20934;-63
2023/11/02 08:35:21;;;;;;;2.20;2.00;;;13.30;99.90;;;;;;5014338;28;20782;-64
2023/11/02 08:37:48;;;;;;;3.47;2.07;;;13.20;99.90;;;;;;5014329;28;20432;-63
2023/11/02 08:40:15;;;;;;;3.27;3.03;;;13.20;99.90;;;;;;5013061;28;20452;-63
2023/11/02 08:42:41;;;;;;;3.00;2.80;;;13.40;99.90;;;;;;5014922;28;20432;-63
2023/11/02 08:45:08;;;;;;;4.10;3.70;;;13.30;99.90;;;;;;5014309;28;20778;-63
2023/11/02 08:47:34;;;;;;;2.43;2.23;;;13.40;99.90;;;;;;5013692;28;20465;-64
2023/11/02 08:50:00;;;;;;;2.80;2.60;;;13.50;99.90;;;;;;5011372;28;20428;-64
2023/11/02 08:52:27;;;;;;;2.30;2.20;;;13.30;99.90;;;;;;5011968;28;20477;-64
2023/11/02 08:54:53;;;;;;;3.13;2.93;;;13.20;99.90;;;;;;5014408;28;20883;-64
2023/11/02 08:57:18;;;;;;;2.60;2.50;;;13.30;99.90;;;;;;5014887;28;20567;-64
2023/11/02 08:59:44;;;;;;;2.23;2.13;;;13.20;99.90;;;;;;5014158;28;20437;-64
2023/11/02 09:02:10;;;;;;;2.30;2.20;;;13.20;99.90;;;;;;4996882;28;20190;-64
2023/11/02 09:04:36;;;;;;;2.83;2.63;;;13.30;99.90;;;;;;5003387;28;20430;-64
2023/11/02 09:07:02;;;;;;;3.30;3.10;;;13.50;99.90;;;;;;5012346;28;20211;-63
2023/11/02 09:09:28;;;;;;;2.50;2.30;;;13.70;99.90;;;;;;5012251;28;20261;-62
2023/11/02 09:11:54;;;;;;;3.60;3.40;;;13.80;99.90;;;;;;5012451;28;20684;-64
2023/11/02 09:14:21;;;;;;;2.10;2.00;;;13.70;99.90;;;;;;5012479;28;20257;-63
2023/11/02 09:16:47;;;;;;;68.13;43.03;;;13.40;99.90;;;;;;5012542;28;20525;-65
2023/11/02 09:19:12;;;;;;;2.40;2.30;;;13.50;99.90;;;;;;5012320;28;20847;-64
2023/11/02 09:21:39;;;;;;;3.20;3.07;;;13.50;99.90;;;;;;5013794;28;20434;-64
2023/11/02 09:24:06;;;;;;;3.83;2.90;;;13.50;99.90;;;;;;5010206;28;20188;-62
2023/11/02 09:26:32;;;;;;;2.40;2.20;;;13.70;99.90;;;;;;5012344;28;20462;-64
2023/11/02 09:28:58;;;;;;;2.17;2.00;;;13.60;99.90;;;;;;5014382;28;20759;-64
2023/11/02 09:31:29;;;;;;;2.37;2.27;;;13.60;99.90;;;;;;5006960;28;20430;-67
2023/11/02 09:34:03;;;;;;;3.37;3.27;;;13.60;99.90;;;;;;5008853;28;20429;-68
2023/11/02 09:36:31;;;;;;;2.10;2.00;;;13.40;99.90;;;;;;5007926;28;20508;-63
2023/11/02 09:39:02;;;;;;;1.50;1.50;;;13.50;99.90;;;;;;5000192;28;20426;-64
2023/11/02 09:41:28;;;;;;;2.57;2.43;;;13.70;99.90;;;;;;5010606;28;20460;-64
2023/11/02 09:43:55;;;;;;;3.50;3.00;;;13.60;99.90;;;;;;5012053;28;20479;-64
2023/11/02 09:46:23;;;;;;;1.80;1.70;;;13.80;99.90;;;;;;5009520;28;20789;-62
2023/11/02 09:48:52;;;;;;;3.87;2.40;;;13.90;99.90;;;;;;5012115;28;20427;-74
2023/11/02 09:51:18;;;;;;;2.83;2.70;;;13.90;99.90;;;;;;5012400;28;20465;-74
2023/11/02 09:53:44;;;;;;;1.70;1.60;;;13.70;99.90;;;;;;5011882;28;20414;-74
2023/11/02 09:56:11;;;;;;;1.90;1.80;;;13.90;99.90;;;;;;5012554;28;20187;-65
2023/11/02 09:58:37;;;;;;;2.50;2.30;;;13.80;99.90;;;;;;5012341;28;20430;-75
2023/11/02 10:01:04;;;;;;;2.10;2.00;;;13.70;99.90;;;;;;5012199;28;20467;-74
2023/11/02 10:03:30;;;;;;;2.70;2.60;;;13.60;99.90;;;;;;5012873;28;20394;-76
2023/11/02 10:05:57;;;;;;;3.03;2.93;;;13.60;99.90;;;;;;5012628;28;20789;-76
2023/11/02 10:08:22;;;;;;;3.93;2.37;;;13.60;99.90;;;;;;5011775;28;20470;-76
2023/11/02 10:10:48;;;;;;;3.33;3.13;;;13.50;99.90;;;;;;5012553;28;20771;-74
2023/11/02 10:13:14;;;;;;;3.20;3.10;;;13.60;99.90;;;;;;5012685;28;20285;-76
2023/11/02 10:15:40;;;;;;;2.50;2.40;;;13.60;99.90;;;;;;5012638;28;20197;-75
2023/11/02 10:18:16;;;;;;;2.90;2.70;;;13.60;99.90;;;;;;5011808;28;20183;-74
2023/11/02 10:20:43;;;;;;;2.13;2.03;;;13.70;99.90;;;;;;4996930;28;20599;-75
2023/11/02 10:23:12;;;;;;;2.10;2.00;;;13.80;99.90;;;;;;5013017;28;20460;-65
2023/11/02 10:25:42;;;;;;;2.23;2.13;;;13.90;99.90;;;;;;5010947;28;20434;-76
2023/11/02 10:28:12;;;;;;;3.00;2.90;;;13.80;99.90;;;;;;5012129;28;20457;-73
2023/11/02 10:30:38;;;;;;;3.40;3.20;;;13.80;99.90;;;;;;5013051;28;20418;-73
2023/11/02 10:33:05;;;;;;;2.83;2.60;;;13.80;99.90;;;;;;5012720;28;20944;-73
2023/11/02 10:35:31;;;;;;;2.80;2.60;;;13.80;99.90;;;;;;5011380;28;20175;-73
2023/11/02 10:37:59;;;;;;;2.90;2.70;;;13.80;99.90;;;;;;5013345;28;20463;-75
2023/11/02 10:40:41;;;;;;;4.60;4.37;;;13.90;99.90;;;;;;5010433;28;20434;-72
2023/11/02 10:43:12;;;;;;;2.13;2.03;;;13.90;99.90;;;;;;5011474;28;20433;-74
2023/11/02 10:45:38;;;;;;;4.60;4.50;;;13.90;99.90;;;;;;5013362;28;20406;-75
2023/11/02 10:48:05;;;;;;;2.17;2.07;;;13.90;99.90;;;;;;5012171;28;20807;-75
2023/11/02 10:50:31;;;;;;;3.87;3.67;;;13.90;99.90;;;;;;5010687;28;20463;-74
2023/11/02 10:52:59;;;;;;;2.80;2.70;;;14.00;99.90;;;;;;5011697;28;20521;-75
2023/11/02 10:55:37;;;;;;;4.20;4.00;;;14.10;99.90;;;;;;5011673;28;20442;-75
2023/11/02 10:58:04;;;;;;;4.20;4.00;;;14.10;99.90;;;;;;5011471;28;20461;-76
2023/11/02 11:00:30;;;;;;;2.30;2.10;;;14.20;99.90;;;;;;5012457;28;20419;-76
2023/11/02 11:02:56;;;;;;;3.90;3.60;;;14.10;99.90;;;;;;5011320;28;20434;-73
2023/11/02 11:05:24;;;;;;;3.50;3.20;;;14.10;99.90;;;;;;5011001;28;20429;-75
2023/11/02 11:07:56;;;;;;;3.73;3.53;;;14.10;99.90;;;;;;5011780;28;20485;-75
2023/11/02 11:10:22;;;;;;;3.43;3.20;;;14.10;99.90;;;;;;5011111;28;20512;-74
2023/11/02 11:12:50;;;;;;;2.87;2.77;;;14.20;99.90;;;;;;5011932;28;20431;-71
2023/11/02 11:15:16;;;;;;;3.37;2.90;;;14.40;99.90;;;;;;5011737;28;20768;-72
2023/11/02 11:17:44;;;;;;;3.27;2.10;;;14.30;99.90;;;;;;5012087;28;21058;-75
2023/11/02 11:20:11;;;;;;;3.23;3.03;;;14.30;99.90;;;;;;5010978;28;20432;-74
2023/11/02 11:22:40;;;;;;;2.90;2.40;;;14.40;99.90;;;;;;5009765;28;20444;-76
2023/11/02 11:25:06;;;;;;;2.70;2.50;;;14.50;99.90;;;;;;5012467;28;20405;-75
2023/11/02 11:27:37;;;;;;;3.07;2.90;;;14.50;99.90;;;;;;5011625;28;20558;-75
2023/11/02 11:30:05;;;;;;;3.03;2.80;;;14.40;99.90;;;;;;5013118;28;20928;-75
2023/11/02 11:32:31;;;;;;;3.27;3.07;;;14.10;99.90;;;;;;5013736;28;20842;-74
2023/11/02 11:34:58;;;;;;;2.70;2.40;;;14.20;99.90;;;;;;5015785;28;20778;-75
2023/11/02 11:37:37;;;;;;;3.13;2.83;;;14.30;99.90;;;;;;5014527;28;20451;-75
2023/11/02 11:40:08;;;;;;;2.60;2.43;;;14.40;99.90;;;;;;5005842;28;20592;-75
2023/11/02 11:42:52;;;;;;;3.63;3.53;;;14.30;99.90;;;;;;4999945;28;20411;-74
2023/11/02 11:45:32;;;;;;;4.03;2.10;;;14.50;99.90;;;;;;5012376;28;20431;-73
2023/11/02 11:48:12;;;;;;;4.00;3.70;;;14.40;99.90;;;;;;5015006;28;20467;-76
2023/11/02 11:50:38;;;;;;;1.83;1.80;;;14.30;99.90;;;;;;5014167;28;20573;-74
2023/11/02 11:53:17;;;;;;;4.73;2.10;;;14.30;99.90;;;;;;5014979;28;20517;-75
2023/11/02 11:55:49;;;;;;;2.90;2.80;;;14.40;99.90;;;;;;5015098;28;20470;-75
2023/11/02 11:58:16;;;;;;;2.97;2.77;;;14.50;99.90;;;;;;5014823;28;20443;-64
2023/11/02 12:00:51;;;;;;;4.03;3.83;;;14.60;99.90;;;;;;5014849;28;20432;-75
2023/11/02 12:03:35;;;;;;;3.03;2.10;;;14.70;99.90;;;;;;5014686;28;20852;-64
2023/11/02 12:06:05;;;;;;;3.87;3.67;;;14.70;99.90;;;;;;5014418;28;20420;-70
2023/11/02 12:08:41;;;;;;;2.10;2.00;;;14.80;99.90;;;;;;5019440;28;20998;-69
2023/11/02 12:11:06;;;;;;;2.37;2.20;;;14.80;99.90;;;;;;5006095;28;20447;-69
2023/11/02 12:13:40;;;;;;;3.87;3.67;;;14.80;99.90;;;;;;5013788;28;20419;-68
2023/11/02 12:16:06;;;;;;;4.00;3.80;;;14.80;99.90;;;;;;5016106;28;20211;-68
2023/11/02 12:18:36;;;;;;;3.67;3.47;;;15.00;99.90;;;;;;5014536;28;20830;-68
2023/11/02 12:21:10;;;;;;;2.33;2.10;;;15.10;99.90;;;;;;5014780;28;20844;-68
2023/11/02 12:23:38;;;;;;;4.43;2.37;;;15.00;99.90;;;;;;5014623;28;20773;-68
2023/11/02 12:26:06;;;;;;;5.43;3.00;;;15.10;99.90;;;;;;4995958;28;20439;-69
2023/11/02 12:28:51;;;;;;;2.70;2.60;;;15.10;99.90;;;;;;5013485;28;20508;-69
2023/11/02 12:31:30;;;;;;;3.50;3.30;;;15.20;99.90;;;;;;5013252;28;20433;-68
2023/11/02 12:33:57;;;;;;;3.10;2.80;;;15.30;99.90;;;;;;5013861;28;20804;-68
2023/11/02 12:36:23;;;;;;;3.00;2.70;;;15.40;99.90;;;;;;5013690;28;20441;-68
2023/11/02 12:38:51;;;;;;;2.57;2.47;;;15.40;99.90;;;;;;5014216;28;20546;-72
2023/11/02 12:41:26;;;;;;;2.63;2.43;;;15.40;99.90;;;;;;5013634;28;20501;-68
2023/11/02 12:44:09;;;;;;;3.63;2.40;;;15.50;99.90;;;;;;5014000;28;20440;-71
2023/11/02 12:46:37;;;;;;;2.73;1.87;;;15.50;99.90;;;;;;5013104;28;20984;-70
2023/11/02 12:49:16;;;;;;;2.60;2.40;;;15.50;99.90;;;;;;5012088;28;20417;-71
2023/11/02 12:51:44;;;;;;;4.17;2.67;;;15.40;99.90;;;;;;5013406;28;20488;-72
2023/11/02 12:54:14;;;;;;;3.93;2.63;;;15.40;99.90;;;;;;5013323;28;20437;-71
2023/11/02 12:56:41;;;;;;;2.53;2.23;;;15.20;99.90;;;;;;5013785;28;20417;-72
2023/11/02 12:59:07;;;;;;;4.47;4.10;;;15.30;99.90;;;;;;5015185;28;20421;-71
2023/11/02 13:01:58;;;;;;;3.53;2.40;;;15.30;99.90;;;;;;5013589;28;20434;-72